Flight Track Log - Related Links

Times and Time Zones

All times are in EDT time to prevent confusion due to time zone crossing. See the GJS3618 flight status page for this flight to view local times or setup timezone preferences in your user account.

Time Position Orientation Groundspeed Altitude Reporting Facility
EDT Latitude Longitude Course Direction KTS MPH feet Rate Location/Type
Wed 08:40:55 PM 39.8167 -104.6167 90° East 191 220 6,800  Level Denver TRACON
Wed 08:41:55 PM 39.8167 -104.5500 90° East 224 258 8,900 1,950 Climbing Denver TRACON
Wed 08:42:55 PM 39.8167 -104.4500 90° East 276 318 10,700 1,789 Climbing Denver TRACON
Wed 08:43:49 PM 39.8500 -104.3667 62° Northeast 297 342 12,300 1,973 Climbing Denver TRACON
Wed 08:44:08 PM 39.8606 -104.3314 69° East 298 343 13,100 2,074 Climbing Denver Center
Wed 08:45:10 PM 39.8906 -104.2222 70° East 318 366 15,100 2,000 Climbing Denver Center
Wed 08:46:11 PM 39.9264 -104.1006 69° East 333 383 17,200 1,561 Climbing Denver Center
Wed 08:47:13 PM 39.9592 -103.9839 70° East 344 396 18,300 1,016 Climbing Denver Center
Wed 08:48:15 PM 39.9947 -103.8608 69° East 360 414 19,300 968 Climbing Denver Center
Wed 08:49:17 PM 40.0247 -103.7342 73° East 373 429 20,300 1,016 Climbing Denver Center
Wed 08:50:19 PM 40.0519 -103.5772 77° East 393 452 21,400 1,016 Climbing Denver Center
Wed 08:51:21 PM 40.0753 -103.4350 78° East 414 476 22,400 1,171 Climbing Denver Center
Wed 08:52:22 PM 40.1019 -103.2675 78° East 424 488 23,800 1,268 Climbing Denver Center
Wed 08:53:24 PM 40.1264 -103.1250 77° East 423 487 25,000 1,113 Climbing Denver Center
Wed 08:54:26 PM 40.1483 -102.9811 79° East 423 487 26,100 1,065 Climbing Denver Center
Wed 08:55:28 PM 40.1753 -102.8122 78° East 427 491 27,200 1,016 Climbing Denver Center
Wed 08:56:30 PM 40.1983 -102.6650 78° East 432 497 28,200 1,016 Climbing Denver Center
Wed 08:57:32 PM 40.2392 -102.4978 72° East 435 501 29,300 976 Climbing Denver Center
Wed 08:58:33 PM 40.2731 -102.3531 73° East 436 502 30,200 780 Climbing Denver Center
Wed 08:59:35 PM 40.3136 -102.1803 73° East 443 510 30,900 629 Climbing Denver Center
Wed 09:00:37 PM 40.3497 -102.0281 73° East 456 525 31,500 726 Climbing Denver Center
Wed 09:01:39 PM 40.3911 -101.8478 73° East 461 531 32,400 774 Climbing Denver Center
Wed 09:02:41 PM 40.4269 -101.6919 73° East 466 536 33,100 774 Climbing Denver Center
Wed 09:03:43 PM 40.4700 -101.5103 73° East 467 537 34,000 878 Climbing Denver Center
Wed 09:04:44 PM 40.5042 -101.3544 74° East 466 536 34,900 488 Climbing Denver Center
Wed 09:05:46 PM 40.5400 -101.2011 73° East 461 531 35,000 48 Climbing Denver Center
Wed 09:06:48 PM 40.5789 -101.0256 74° East 450 518 35,000  Level Denver Center
Wed 09:07:50 PM 40.6119 -100.8742 74° East 452 520 35,000  Level Denver Center
Wed 09:08:52 PM 40.6506 -100.6978 74° East 455 524 35,000  Level Denver Center
Wed 09:09:53 PM 40.6894 -100.5208 74° East 458 527 35,000  Level Denver Center
Wed 09:10:55 PM 40.7228 -100.3689 74° East 456 525 35,000  Level Denver Center
Wed 09:11:57 PM 40.7561 -100.2156 74° East 456 525 35,000  Level Denver Center
Wed 09:12:59 PM 40.7944 -100.0358 74° East 457 526 35,000  Level Denver Center
Wed 09:14:00 PM 40.8272 -99.8808 74° East 459 528 35,000  Level Denver Center
Wed 09:15:02 PM 40.8606 -99.7231 74° East 456 525 35,000  Level Denver Center
Wed 09:16:04 PM 40.8947 -99.5603 74° East 458 527 35,000  Level Denver Center
Wed 09:17:06 PM 40.9353 -99.3664 74° East 457 526 35,000  Level Denver Center
Wed 09:18:07 PM 40.9681 -99.2033 75° East 458 527 35,000  Level Denver Center
Wed 09:19:09 PM 41.0042 -99.0261 75° East 461 531 35,000  Level Denver Center
Wed 09:20:11 PM 41.0356 -98.8683 75° East 463 533 35,000  Level Denver Center
Wed 09:21:08 PM 41.0675 -98.7089 75° East 469 540 35,000  Level Minneapolis Center
Wed 09:22:10 PM 41.1008 -98.5439 75° East 467 537 35,000 97 Level Minneapolis Center
Wed 09:23:12 PM 41.1381 -98.3558 75° East 467 537 35,200 484 Climbing Minneapolis Center
Wed 09:24:14 PM 41.1711 -98.1903 75° East 467 537 36,000 677 Climbing Minneapolis Center
Wed 09:25:16 PM 41.2031 -98.0222 76° East 469 540 36,600 484 Climbing Minneapolis Center
Wed 09:26:18 PM 41.2292 -97.8889 75° East 468 539 37,000 195 Climbing Minneapolis Center
Wed 09:27:19 PM 41.2608 -97.7189 76° East 472 543 37,000  Level Minneapolis Center
Wed 09:28:22 PM 41.3008 -97.5119 76° East 480 552 37,000  Level Minneapolis Center
Wed 09:29:24 PM 41.3356 -97.3244 76° East 484 557 37,000  Level Minneapolis Center
Wed 09:30:26 PM 41.3692 -97.1478 76° East 489 563 37,000  Level Minneapolis Center
Wed 09:31:27 PM 41.4014 -96.9697 76° East 494 568 37,000  Level Minneapolis Center
Wed 09:32:29 PM 41.4344 -96.7914 76° East 496 571 37,000  Level Minneapolis Center
Wed 09:33:31 PM 41.4736 -96.5736 76° East 500 575 37,000  Level Minneapolis Center
Wed 09:34:33 PM 41.5067 -96.3914 76° East 502 578 37,000 48 Level Minneapolis Center
Wed 09:35:35 PM 41.5333 -96.2242 78° East 504 580 37,100  Climbing Minneapolis Center
Wed 09:37:01 PM 41.5761 -95.9681 77° East 505 581 37,000 -41 Descending Minneapolis Center
Wed 09:38:03 PM 41.6183 -95.7481 76° East 508 585 37,000  Level Minneapolis Center
Wed 09:39:05 PM 41.6472 -95.5767 77° East 503 579 37,000  Level Minneapolis Center
Wed 09:40:06 PM 41.6672 -95.4311 80° East 500 575 37,000  Level Minneapolis Center
Wed 09:41:08 PM 41.6906 -95.2144 82° East 491 565 37,000  Level Minneapolis Center
Wed 09:42:10 PM 41.7075 -95.0358 83° East 486 559 37,000  Level Minneapolis Center
Wed 09:43:11 PM 41.7197 -94.8556 85° East 487 560 37,000  Level Minneapolis Center
Wed 09:44:13 PM 41.7367 -94.6394 84° East 488 562 37,000  Level Minneapolis Center
Wed 09:45:15 PM 41.7692 -94.4628 76° East 489 563 37,000  Level Minneapolis Center
Wed 09:46:16 PM 41.8000 -94.2833 77° East 494 568 37,000  Level Minneapolis Center
Wed 09:47:18 PM 41.8289 -94.1031 78° East 494 568 37,000  Level Minneapolis Center
Wed 09:48:20 PM 41.8561 -93.9211 79° East 497 572 37,000  Level Minneapolis Center
Wed 09:49:21 PM 41.8847 -93.7433 78° East 500 575 37,000  Level Minneapolis Center
Wed 09:50:23 PM 41.9083 -93.5997 77° East 498 573 37,000  Level Minneapolis Center
Wed 09:51:25 PM 41.9453 -93.3611 78° East 502 578 37,000  Level Minneapolis Center
Wed 09:52:26 PM 41.9728 -93.1817 78° East 499 574 37,000  Level Minneapolis Center
Wed 09:53:28 PM 42.0000 -93.0003 79° East 502 578 37,000  Level Minneapolis Center
Wed 09:54:29 PM 42.0331 -92.7842 78° East 499 574 37,000  Level Minneapolis Center
Wed 09:55:43 PM 42.0600 -92.6039 79° East 499 574 37,000  Level Minneapolis Center
Wed 09:56:18 PM 42.0811 -92.4581 79° East 497 572 37,000  Level Chicago Center
Wed 09:57:19 PM 42.1083 -92.2775 78° East 500 575 37,000  Level Chicago Center
Wed 09:58:21 PM 42.1350 -92.0969 79° East 498 573 37,000  Level Chicago Center
Wed 09:59:22 PM 42.1600 -91.9153 79° East 501 577 37,000  Level Chicago Center
Wed 10:00:24 PM 42.1858 -91.7344 79° East 500 575 37,000  Level Chicago Center
Wed 10:01:25 PM 42.2156 -91.5158 80° East 502 578 37,000  Level Chicago Center
Wed 10:02:27 PM 42.2411 -91.3344 79° East 503 579 37,000  Level Chicago Center
Wed 10:03:28 PM 42.2656 -91.1528 80° East 502 578 37,000  Level Chicago Center
Wed 10:04:30 PM 42.2906 -90.9731 79° East 497 572 37,000  Level Chicago Center
Wed 10:05:31 PM 42.3133 -90.7922 80° East 498 573 37,000  Level Chicago Center
Wed 10:06:32 PM 42.3397 -90.5733 81° East 500 575 37,000  Level Chicago Center
Wed 10:07:34 PM 42.3642 -90.3914 80° East 499 574 37,000  Level Chicago Center
Wed 10:08:35 PM 42.3886 -90.2058 80° East 499 574 37,000  Level Chicago Center
Wed 10:09:37 PM 42.4100 -90.0278 81° East 496 571 37,000  Level Chicago Center
Wed 10:10:38 PM 42.4347 -89.8303 80° East 500 575 37,000  Level Chicago Center
Wed 10:11:40 PM 42.4581 -89.6467 80° East 497 572 37,000  Level Chicago Center
Wed 10:12:41 PM 42.4800 -89.4622 81° East 497 572 37,000  Level Chicago Center
Wed 10:13:42 PM 42.5050 -89.2481 81° East 496 571 37,000  Level Chicago Center
Wed 10:14:44 PM 42.5267 -89.0656 81° East 494 568 37,000  Level Chicago Center
Wed 10:15:45 PM 42.5475 -88.8847 81° East 488 562 37,000  Level Chicago Center
Wed 10:16:47 PM 42.5689 -88.7053 81° East 485 558 37,000 -537 Level Chicago Center
Wed 10:17:48 PM 42.5883 -88.5253 82° East 483 556 35,900 -1,512 Descending Chicago Center
Wed 10:18:50 PM 42.6075 -88.3483 82° East 478 550 33,900 -1,951 Descending Chicago Center
Wed 10:19:51 PM 42.6267 -88.1689 82° East 482 555 31,900 -2,146 Descending Chicago Center
Wed 10:20:53 PM 42.6500 -87.9553 81° East 491 565 29,500 -2,146 Descending Chicago Center
Wed 10:21:54 PM 42.6683 -87.7797 82° East 477 549 27,500 -1,951 Descending Chicago Center
Wed 10:22:56 PM 42.6861 -87.6081 82° East 462 532 25,500 -1,707 Descending Chicago Center
Wed 10:23:57 PM 42.7036 -87.4350 82° East 462 532 24,000 -1,230 Descending Chicago Center
Wed 10:24:58 PM 42.7203 -87.2683 82° East 465 535 23,000 -1,415 Descending Chicago Center
Wed 10:26:00 PM 42.7369 -87.0986 82° East 456 525 21,100 -2,146 Descending Chicago Center
Wed 10:27:01 PM 42.7539 -86.9344 82° East 444 511 18,600 -2,488 Descending Chicago Center
Wed 10:28:03 PM 42.7714 -86.7419 83° East 432 497 16,000 -2,000 Descending Chicago Center
Wed 10:29:04 PM 42.7844 -86.5983 83° East 387 445 14,500 -1,475 Descending Chicago Center
Wed 10:30:05 PM 42.7969 -86.4708 82° East 348 400 13,000 -1,512 Descending Chicago Center
Wed 10:31:07 PM 42.8081 -86.3561 82° East 316 364 11,400 -1,561 Descending Chicago Center
Wed 10:32:08 PM 42.8181 -86.2442 83° East 304 350 9,800 -1,561 Descending Chicago Center
Wed 10:33:10 PM 42.8275 -86.1378 83° East 292 336 8,200 -1,610 Descending Chicago Center
Wed 10:34:11 PM 42.8469 -86.0386 75° East 276 318 6,500 -1,525 Descending Chicago Center
Wed 10:35:12 PM 42.8764 -85.9236 71° East 272 313 5,100 -1,122 Descending Chicago Center
Wed 10:36:14 PM 42.8986 -85.8286 72° East 269 310 4,200 -927 Descending Chicago Center
Wed 10:37:15 PM 42.9183 -85.7336 74° East 264 304 3,200 -836 Descending Chicago Center
Wed 10:38:16 PM 42.9347 -85.6386 77° East 263 303 2,500 -341 Descending Chicago Center
Wed 10:39:18 PM 42.9428 -85.5494 83° East 250 288 2,500  Level Chicago Center
Wed 10:40:19 PM 42.9508 -85.4789 81° East 205 236 2,500 49 Level Chicago Center
Wed 10:41:20 PM 42.9364 -85.4253 110° East 195 224 2,600 -293 Climbing Chicago Center
Wed 10:42:22 PM 42.8967 -85.4297 185° South 163 188 1,900 -683 Descending Chicago Center
Wed 10:43:23 PM 42.8831 -85.4875 252° West 148 170 1,200 -439 Descending Chicago Center
Wed 10:44:25 PM 42.8775 -85.5381 261° West 146 168 1,000 -194 Descending Chicago Center

Login

Don't have an account? Register now (free) for customized features, flight alerts, and more!